createdAt,value
2022-08-05T00:02:12.870Z,97501.31
2022-08-05T00:04:47.446Z,97507.38
2022-08-05T00:08:00.272Z,97507.38
2022-08-05T00:10:27.208Z,97504.75
2022-08-05T00:13:00.571Z,97504.78
2022-08-05T00:15:57.712Z,97510.84
2022-08-05T00:18:28.756Z,97497.81
2022-08-05T00:21:02.014Z,97504.75
2022-08-05T00:23:45.768Z,97503.00
2022-08-05T00:26:20.726Z,97497.78
2022-08-05T00:28:55.551Z,97501.25
2022-08-05T00:31:53.934Z,97500.41
2022-08-05T00:34:53.478Z,97501.28
2022-08-05T00:37:16.548Z,97498.69
2022-08-05T00:39:57.914Z,97497.78
2022-08-05T00:42:33.240Z,97495.16
2022-08-05T00:45:11.608Z,97495.16
2022-08-05T00:47:53.238Z,97494.28
2022-08-05T00:50:29.849Z,97494.28
2022-08-05T00:53:03.026Z,97496.84
2022-08-05T00:55:42.883Z,97493.34
2022-08-05T00:58:19.050Z,97487.28
2022-08-05T01:00:52.537Z,97490.75
2022-08-05T01:03:31.062Z,97482.94
2022-08-05T01:06:11.306Z,97482.94
2022-08-05T01:08:48.543Z,97482.06
2022-08-05T01:11:33.484Z,97486.38
2022-08-05T01:14:16.180Z,97489.88
2022-08-05T01:16:54.246Z,97487.28
2022-08-05T01:20:01.940Z,97490.72
2022-08-05T01:22:47.255Z,97495.94
2022-08-05T01:25:42.303Z,97509.00
2022-08-05T01:28:34.491Z,97525.47
2022-08-05T01:31:14.436Z,97532.41
2022-08-05T01:33:55.326Z,97538.47
2022-08-05T01:36:35.368Z,97545.41
2022-08-05T01:39:36.134Z,97552.31
2022-08-05T01:42:15.301Z,97555.81
2022-08-05T01:44:54.300Z,97554.03
2022-08-05T01:47:38.949Z,97544.41
2022-08-05T01:50:18.696Z,97546.09
2022-08-05T01:53:06.107Z,97560.88
2022-08-05T01:55:45.229Z,97565.22
2022-08-05T01:58:40.356Z,97561.75
2022-08-05T02:01:23.300Z,97560.91
2022-08-05T02:03:59.993Z,97578.25
2022-08-05T02:06:38.348Z,97567.81
2022-08-05T02:09:12.187Z,97570.44
2022-08-05T02:11:58.081Z,97573.84
2022-08-05T02:14:35.611Z,97572.13
2022-08-05T02:17:29.861Z,97565.19
2022-08-05T02:20:23.142Z,97572.06
2022-08-05T02:22:59.963Z,97579.00
2022-08-05T02:25:49.830Z,97585.09
2022-08-05T02:28:32.114Z,97579.88
2022-08-05T02:31:14.528Z,97596.31
2022-08-05T02:33:57.236Z,97587.69
2022-08-05T02:36:32.563Z,97595.47
2022-08-05T02:39:09.837Z,97599.94
2022-08-05T02:42:00.429Z,97598.19
2022-08-05T02:44:37.234Z,97597.06
2022-08-05T02:47:12.356Z,97605.75
2022-08-05T02:49:49.442Z,97606.63
2022-08-05T02:52:29.652Z,97600.59
2022-08-05T02:55:06.586Z,97599.78
2022-08-05T02:58:11.822Z,97596.25
2022-08-05T03:00:39.807Z,97597.09
2022-08-05T03:03:16.533Z,97604.94
2022-08-05T03:06:54.301Z,97608.47
2022-08-05T03:08:45.977Z,97607.66
2022-08-05T03:11:57.675Z,97611.03
2022-08-05T03:14:21.787Z,97604.09
2022-08-05T03:16:55.188Z,97603.22
2022-08-05T03:19:34.148Z,97597.97
2022-08-05T03:22:16.618Z,97596.25
2022-08-05T03:24:53.414Z,97607.53
2022-08-05T03:27:29.640Z,97606.66
2022-08-05T03:30:13.399Z,97626.63
2022-08-05T03:32:46.852Z,97629.25
2022-08-05T03:35:20.708Z,97631.00
2022-08-05T03:37:58.491Z,97634.56
2022-08-05T03:40:32.250Z,97628.44
2022-08-05T03:43:59.083Z,97642.38
2022-08-05T03:45:59.162Z,97639.66
2022-08-05T03:48:35.161Z,97647.44
2022-08-05T03:52:37.212Z,97649.16
2022-08-05T03:55:50.018Z,97640.44
2022-08-05T03:57:18.317Z,97644.66
2022-08-05T04:00:01.597Z,97653.31
2022-08-05T04:02:52.247Z,97646.38
2022-08-05T04:05:34.898Z,97643.66
2022-08-05T04:08:14.485Z,97657.53
2022-08-05T04:11:08.695Z,97667.16
2022-08-05T04:13:50.526Z,97668.97
2022-08-05T04:16:32.139Z,97659.41
2022-08-05T04:19:10.644Z,97662.06
2022-08-05T04:22:09.085Z,97665.53
2022-08-05T04:24:37.070Z,97659.47
2022-08-05T04:27:19.146Z,97670.75
2022-08-05T04:29:52.315Z,97674.19
2022-08-05T04:32:30.979Z,97668.09
2022-08-05T04:35:17.609Z,97672.41
2022-08-05T04:38:00.910Z,97662.88
2022-08-05T04:40:36.947Z,97654.25
2022-08-05T04:43:16.724Z,97665.50
2022-08-05T04:45:55.173Z,97673.28
2022-08-05T04:48:28.913Z,97692.44
2022-08-05T04:51:09.993Z,97689.91
2022-08-05T04:53:44.788Z,97695.25
2022-08-05T04:56:34.913Z,97699.66
2022-08-05T04:59:22.343Z,97719.72
2022-08-05T05:02:07.653Z,97723.25
2022-08-05T05:04:51.735Z,97729.44
2022-08-05T05:07:29.608Z,97744.31
2022-08-05T05:10:06.654Z,97745.22
2022-08-05T05:12:39.937Z,97748.72
2022-08-05T05:15:17.540Z,97753.06
2022-08-05T05:18:08.965Z,97765.25
2022-08-05T05:20:46.056Z,97773.97
2022-08-05T05:23:19.900Z,97781.84
2022-08-05T05:25:53.299Z,97784.56
2022-08-05T05:28:26.729Z,97787.38
2022-08-05T05:31:05.775Z,97792.59
2022-08-05T05:33:59.261Z,97809.09
2022-08-05T05:36:33.387Z,97834.28
2022-08-05T05:39:11.479Z,97853.41
2022-08-05T05:41:44.623Z,97853.34
2022-08-05T05:44:36.611Z,97862.00
2022-08-05T05:47:23.567Z,97860.22
2022-08-05T05:50:04.669Z,97866.22
2022-08-05T05:52:40.716Z,97873.97
2022-08-05T05:55:20.222Z,97873.97
2022-08-05T05:57:54.399Z,97879.19
2022-08-05T06:00:31.818Z,97892.28
2022-08-05T06:03:39.695Z,97897.56
2022-08-05T06:06:03.116Z,97889.78
2022-08-05T06:08:37.280Z,97896.78
2022-08-05T06:11:13.361Z,97902.91
2022-08-05T06:13:50.553Z,97902.06
2022-08-05T06:16:30.697Z,97909.31
2022-08-05T06:19:08.070Z,97901.81
2022-08-05T06:21:42.957Z,97899.31
2022-08-05T06:24:25.856Z,97908.91
2022-08-05T06:27:00.862Z,97891.16
2022-08-05T06:29:49.710Z,97895.84
2022-08-05T06:32:29.514Z,97882.69
2022-08-05T06:35:05.822Z,97887.16
2022-08-05T06:37:57.575Z,97896.50
2022-08-05T06:40:32.366Z,97883.72
2022-08-05T06:43:05.816Z,97893.38
2022-08-05T06:46:03.961Z,97890.34
2022-08-05T06:48:55.440Z,97901.97
2022-08-05T06:51:33.770Z,97889.47
2022-08-05T06:54:07.063Z,97892.34
2022-08-05T06:56:41.275Z,97888.94
2022-08-05T06:59:28.348Z,97883.53
2022-08-05T07:02:11.821Z,97877.13
2022-08-05T07:04:48.066Z,97883.22
2022-08-05T07:07:24.022Z,97893.31
2022-08-05T07:10:10.996Z,97882.69
2022-08-05T07:13:05.878Z,97874.91
2022-08-05T07:16:01.449Z,97872.91
2022-08-05T07:18:37.557Z,97873.41
2022-08-05T07:21:25.867Z,97873.63
2022-08-05T07:24:01.226Z,97889.78
2022-08-05T07:26:34.588Z,97874.00
2022-08-05T07:29:07.995Z,97872.66
2022-08-05T07:31:54.659Z,97889.31
2022-08-05T07:34:28.787Z,97881.69
2022-08-05T07:37:01.991Z,97880.44
2022-08-05T07:40:04.290Z,97888.22
2022-08-05T07:42:31.770Z,97900.03
2022-08-05T07:45:09.292Z,97892.69
2022-08-05T07:47:42.994Z,97903.16
2022-08-05T07:50:16.835Z,97907.03
2022-08-05T07:52:49.952Z,97908.22
2022-08-05T07:55:44.259Z,97895.09
2022-08-05T07:58:57.488Z,97900.78
2022-08-05T08:01:12.090Z,97910.81
2022-08-05T08:03:45.629Z,97919.94
2022-08-05T08:06:28.133Z,97912.66
2022-08-05T08:09:01.415Z,97921.41
2022-08-05T08:11:53.614Z,97917.63
2022-08-05T08:14:28.927Z,97905.53
2022-08-05T08:17:02.001Z,97918.25
2022-08-05T08:20:10.135Z,97920.41
2022-08-05T08:22:28.769Z,97913.00
2022-08-05T08:25:02.721Z,97922.06
2022-08-05T08:27:42.308Z,97919.69
2022-08-05T08:30:32.497Z,97904.97
2022-08-05T08:33:13.955Z,97906.47
2022-08-05T08:35:52.911Z,97906.31
2022-08-05T08:38:37.699Z,97911.38
2022-08-05T08:41:14.258Z,97900.75
2022-08-05T08:45:20.396Z,97905.38
2022-08-05T08:46:43.562Z,97909.88
2022-08-05T08:50:14.290Z,97911.59
2022-08-05T08:52:15.666Z,97918.25
2022-08-05T08:54:48.780Z,97915.34
2022-08-05T08:57:22.869Z,97910.91
2022-08-05T09:00:05.857Z,97915.72
2022-08-05T09:02:39.117Z,97921.94
2022-08-05T09:05:17.493Z,97916.31
2022-08-05T09:07:57.612Z,97909.91
2022-08-05T09:10:31.439Z,97914.25
2022-08-05T09:13:05.255Z,97917.88
2022-08-05T09:15:40.973Z,97908.34
2022-08-05T09:18:14.149Z,97895.59
2022-08-05T09:20:51.286Z,97894.31
2022-08-05T09:23:27.179Z,97888.41
2022-08-05T09:26:15.881Z,97889.72
2022-08-05T09:29:00.687Z,97883.38
2022-08-05T09:32:40.125Z,97885.94
2022-08-05T09:34:48.795Z,97871.06
2022-08-05T09:38:17.047Z,97870.44
2022-08-05T09:40:33.568Z,97858.88
2022-08-05T09:43:08.420Z,97854.50
2022-08-05T09:46:07.571Z,97856.34
2022-08-05T09:48:39.460Z,97850.16
2022-08-05T09:51:15.265Z,97840.22
2022-08-05T09:53:59.340Z,97842.25
2022-08-05T09:56:35.297Z,97837.44
2022-08-05T09:59:17.238Z,97842.34
2022-08-05T10:01:57.978Z,97846.41
2022-08-05T10:04:40.929Z,97842.00
2022-08-05T10:07:20.791Z,97837.31
2022-08-05T10:10:15.110Z,97830.19
2022-08-05T10:12:53.585Z,97829.88
2022-08-05T10:15:34.331Z,97830.63
2022-08-05T10:18:14.642Z,97833.81
2022-08-05T10:20:53.755Z,97830.56
2022-08-05T10:23:55.633Z,97828.00
2022-08-05T10:26:32.433Z,97821.38
2022-08-05T10:29:09.118Z,97823.59
2022-08-05T10:32:55.166Z,97828.50
2022-08-05T10:34:36.603Z,97826.16
2022-08-05T10:37:15.326Z,97825.63
2022-08-05T10:40:03.097Z,97824.16
2022-08-05T10:42:39.809Z,97820.22
2022-08-05T10:45:30.490Z,97820.88
2022-08-05T10:48:38.440Z,97820.09
2022-08-05T10:51:28.477Z,97811.84
2022-08-05T10:54:05.821Z,97815.22
2022-08-05T10:56:58.688Z,97815.34
2022-08-05T11:00:03.391Z,97823.66
2022-08-05T11:02:38.182Z,97816.78
2022-08-05T11:05:12.058Z,97817.84
2022-08-05T11:08:12.725Z,97815.31
2022-08-05T11:11:44.365Z,97823.19
2022-08-05T11:14:57.835Z,97825.13
2022-08-05T11:18:07.475Z,97820.22
2022-08-05T11:20:44.233Z,97817.38
2022-08-05T11:24:02.338Z,97813.91
2022-08-05T11:26:28.972Z,97818.06
2022-08-05T11:29:13.026Z,97814.16
2022-08-05T11:31:58.704Z,97816.91
2022-08-05T11:34:52.125Z,97819.25
2022-08-05T11:38:36.951Z,97815.16
2022-08-05T11:41:12.929Z,97817.53
2022-08-05T11:44:07.317Z,97815.28
2022-08-05T11:46:58.451Z,97813.84
2022-08-05T11:49:37.975Z,97811.38
2022-08-05T11:52:12.175Z,97803.00
2022-08-05T11:54:54.964Z,97807.63
2022-08-05T11:58:07.861Z,97814.03
2022-08-05T12:00:31.752Z,97810.59
2022-08-05T12:03:28.674Z,97814.38
2022-08-05T12:06:06.474Z,97803.91
2022-08-05T12:08:50.068Z,97802.38
2022-08-05T12:11:40.603Z,97796.78
2022-08-05T12:14:15.423Z,97805.13
2022-08-05T12:16:52.646Z,97804.88
2022-08-05T12:20:25.399Z,97798.59
2022-08-05T12:22:22.748Z,97793.66
2022-08-05T12:24:57.839Z,97799.44
2022-08-05T12:27:33.232Z,97796.47
2022-08-05T12:30:09.707Z,97792.94
2022-08-05T12:32:51.158Z,97786.00
2022-08-05T12:35:24.845Z,97783.00
2022-08-05T12:38:13.157Z,97792.38
2022-08-05T12:40:48.288Z,97789.56
2022-08-05T12:43:23.519Z,97783.44
2022-08-05T12:45:57.785Z,97779.31
2022-08-05T12:48:40.135Z,97777.16
2022-08-05T12:52:10.178Z,97780.63
2022-08-05T12:54:16.471Z,97769.56
2022-08-05T12:57:00.034Z,97767.22
2022-08-05T13:00:08.798Z,97766.09
2022-08-05T13:02:30.599Z,97762.91
2022-08-05T13:05:08.399Z,97764.63
2022-08-05T13:07:59.435Z,97760.81
2022-08-05T13:10:34.077Z,97753.47
2022-08-05T13:13:08.944Z,97758.72
2022-08-05T13:15:50.927Z,97754.19
2022-08-05T13:18:24.405Z,97749.03
2022-08-05T13:20:58.846Z,97753.84
2022-08-05T13:23:31.938Z,97752.53
2022-08-05T13:26:07.631Z,97750.88
2022-08-05T13:28:44.626Z,97741.31
2022-08-05T13:31:17.686Z,97737.91
2022-08-05T13:34:22.896Z,97733.25
2022-08-05T13:37:00.273Z,97735.19
2022-08-05T13:40:15.824Z,97727.50
2022-08-05T13:42:27.411Z,97730.88
2022-08-05T13:45:00.947Z,97726.81
2022-08-05T13:48:08.478Z,97728.09
2022-08-05T13:50:27.856Z,97731.09
2022-08-05T13:53:03.021Z,97716.13
2022-08-05T13:55:50.145Z,97710.44
2022-08-05T13:58:32.215Z,97713.78
2022-08-05T14:01:05.817Z,97718.41
2022-08-05T14:03:40.414Z,97716.13
2022-08-05T14:06:26.769Z,97699.69
2022-08-05T14:09:02.126Z,97707.25
2022-08-05T14:12:04.440Z,97713.38
2022-08-05T14:14:34.848Z,97712.91
2022-08-05T14:17:16.720Z,97709.06
2022-08-05T14:19:55.281Z,97704.00
2022-08-05T14:22:30.439Z,97701.00
2022-08-05T14:25:21.456Z,97694.53
2022-08-05T14:27:55.578Z,97706.63
2022-08-05T14:30:28.705Z,97706.09
2022-08-05T14:33:04.644Z,97706.53
2022-08-05T14:35:50.337Z,97703.31
2022-08-05T14:38:32.118Z,97704.09
2022-08-05T14:41:08.530Z,97692.84
2022-08-05T14:43:59.214Z,97689.44
2022-08-05T14:46:35.469Z,97693.88
2022-08-05T14:49:08.798Z,97689.06
2022-08-05T14:51:43.242Z,97694.34
2022-08-05T14:54:27.861Z,97699.59
2022-08-05T14:57:09.773Z,97701.13
2022-08-05T14:59:46.863Z,97711.97
2022-08-05T15:02:22.645Z,97714.00
2022-08-05T15:04:55.797Z,97717.22
2022-08-05T15:08:11.575Z,97708.13
2022-08-05T15:10:28.828Z,97697.88
2022-08-05T15:13:04.897Z,97706.31
2022-08-05T15:15:55.842Z,97708.75
2022-08-05T15:18:29.536Z,97707.72
2022-08-05T15:21:07.225Z,97713.25
2022-08-05T15:23:41.041Z,97705.44
2022-08-05T15:26:15.428Z,97688.47
2022-08-05T15:29:06.060Z,97680.25
2022-08-05T15:31:39.363Z,97694.94
2022-08-05T15:34:32.514Z,97713.75
2022-08-05T15:37:07.026Z,97724.84
2022-08-05T15:40:58.832Z,97712.59
2022-08-05T15:42:53.514Z,97712.63
2022-08-05T15:45:37.120Z,97716.50
2022-08-05T15:48:14.423Z,97719.91
2022-08-05T15:50:49.121Z,97719.78
2022-08-05T15:53:26.491Z,97704.00
2022-08-05T15:56:14.375Z,97713.84
2022-08-05T15:58:47.967Z,97709.44
2022-08-05T16:01:29.502Z,97709.78
2022-08-05T16:04:10.404Z,97713.75
2022-08-05T16:06:43.752Z,97714.50
2022-08-05T16:09:16.946Z,97708.84
2022-08-05T16:11:55.334Z,97714.41
2022-08-05T16:14:29.523Z,97721.50
2022-08-05T16:17:03.957Z,97726.66
2022-08-05T16:20:04.758Z,97739.44
2022-08-05T16:22:34.286Z,97739.44
2022-08-05T16:25:10.041Z,97738.41
2022-08-05T16:28:00.387Z,97751.31
2022-08-05T16:30:36.595Z,97761.53
2022-08-05T16:33:11.047Z,97763.41
2022-08-05T16:35:44.649Z,97776.78
2022-08-05T16:38:25.740Z,97773.81
2022-08-05T16:42:12.835Z,97785.69
2022-08-05T16:43:56.640Z,97791.06
2022-08-05T16:46:30.420Z,97783.50
2022-08-05T16:49:07.209Z,97785.94
2022-08-05T16:51:42.903Z,97783.31
2022-08-05T16:54:28.956Z,97784.63
2022-08-05T16:57:06.632Z,97794.25
2022-08-05T17:00:01.270Z,97806.78
2022-08-05T17:02:37.604Z,97807.44
2022-08-05T17:05:12.443Z,97801.97
2022-08-05T17:07:54.767Z,97801.34
2022-08-05T17:10:30.659Z,97810.31
2022-08-05T17:13:04.009Z,97820.94
2022-08-05T17:15:49.681Z,97821.47
2022-08-05T17:18:24.590Z,97838.47
2022-08-05T17:21:00.203Z,97843.75
2022-08-05T17:24:04.503Z,97837.09
2022-08-05T17:26:26.820Z,97836.25
2022-08-05T17:28:59.911Z,97835.41
2022-08-05T17:31:57.282Z,97858.22
2022-08-05T17:34:34.786Z,97857.63
2022-08-05T17:37:29.532Z,97856.91
2022-08-05T17:40:03.540Z,97855.41
2022-08-05T17:42:36.865Z,97859.03
2022-08-05T17:45:20.797Z,97870.38
2022-08-05T17:47:56.393Z,97875.03
2022-08-05T17:50:30.966Z,97872.91
2022-08-05T17:53:08.688Z,97868.63
2022-08-05T17:55:41.946Z,97869.91
2022-08-05T17:58:16.161Z,97879.63
2022-08-05T18:00:51.025Z,97881.59
2022-08-05T18:03:56.083Z,97892.16
2022-08-05T18:06:18.150Z,97910.06
2022-08-05T18:09:04.035Z,97912.78
2022-08-05T18:11:37.203Z,97918.19
2022-08-05T18:14:13.523Z,97924.53
2022-08-05T18:16:53.441Z,97936.88
2022-08-05T18:19:26.579Z,97937.00
2022-08-05T18:22:09.592Z,97938.75
2022-08-05T18:24:45.840Z,97944.97
2022-08-05T18:27:19.198Z,97940.63
2022-08-05T18:29:54.778Z,97936.38
2022-08-05T18:32:29.690Z,97940.78
2022-08-05T18:35:02.823Z,97948.75
2022-08-05T18:37:40.240Z,97947.94
2022-08-05T18:41:51.034Z,97949.63
2022-08-05T18:43:09.128Z,97949.69
2022-08-05T18:45:49.732Z,97960.28
2022-08-05T18:48:30.576Z,97974.34
2022-08-05T18:52:05.669Z,97971.69
2022-08-05T18:54:17.171Z,97986.59
2022-08-05T18:56:52.199Z,97991.03
2022-08-05T18:59:43.212Z,98009.47
2022-08-05T19:02:27.867Z,98009.44
2022-08-05T19:06:03.444Z,98000.72
2022-08-05T19:07:57.547Z,98006.88
2022-08-05T19:10:31.460Z,98021.78
2022-08-05T19:13:06.015Z,98033.16
2022-08-05T19:15:58.828Z,98029.72
2022-08-05T19:18:33.717Z,98034.16
2022-08-05T19:21:07.870Z,98036.81
2022-08-05T19:24:07.655Z,98033.41
2022-08-05T19:26:34.274Z,98036.13
2022-08-05T19:29:08.742Z,98029.13
2022-08-05T19:31:44.912Z,98025.66
2022-08-05T19:34:24.419Z,98029.16
2022-08-05T19:36:57.466Z,98019.56
2022-08-05T19:39:32.034Z,98024.81
2022-08-05T19:42:35.760Z,98030.97
2022-08-05T19:45:14.376Z,98036.22
2022-08-05T19:47:47.754Z,98051.06
2022-08-05T19:50:21.049Z,98058.91
2022-08-05T19:52:56.614Z,98070.34
2022-08-05T19:56:15.368Z,98073.84
2022-08-05T19:58:53.494Z,98076.44
2022-08-05T20:01:28.922Z,98069.47
2022-08-05T20:04:02.406Z,98082.56
2022-08-05T20:06:45.731Z,98093.94
2022-08-05T20:09:19.119Z,98096.59
2022-08-05T20:11:52.193Z,98092.22
2022-08-05T20:14:26.997Z,98086.09
2022-08-05T20:17:04.843Z,98086.09
2022-08-05T20:19:41.376Z,98088.72
2022-08-05T20:22:16.232Z,98101.78
2022-08-05T20:24:49.788Z,98106.19
2022-08-05T20:27:26.778Z,98108.78
2022-08-05T20:30:00.523Z,98124.44
2022-08-05T20:32:36.737Z,98119.22
2022-08-05T20:35:18.301Z,98115.72
2022-08-05T20:38:06.431Z,98120.94
2022-08-05T20:40:43.182Z,98111.25
2022-08-05T20:43:16.364Z,98112.94
2022-08-05T20:45:57.005Z,98127.72
2022-08-05T20:48:36.569Z,98120.66
2022-08-05T20:51:09.971Z,98124.13
2022-08-05T20:53:43.038Z,98130.19
2022-08-05T20:56:34.238Z,98142.38
2022-08-05T20:59:26.172Z,98154.59
2022-08-05T21:02:00.423Z,98159.81
2022-08-05T21:04:34.941Z,98165.00
2022-08-05T21:07:10.849Z,98182.41
2022-08-05T21:09:50.390Z,98190.28
2022-08-05T21:12:27.060Z,98196.38
2022-08-05T21:15:01.265Z,98188.41
2022-08-05T21:17:34.570Z,98193.59
2022-08-05T21:20:12.611Z,98198.94
2022-08-05T21:23:07.367Z,98206.59
2022-08-05T21:25:44.450Z,98208.25
2022-08-05T21:28:18.710Z,98220.22
2022-08-05T21:30:56.741Z,98226.88
2022-08-05T21:33:36.831Z,98218.66
2022-08-05T21:36:14.484Z,98223.44
2022-08-05T21:39:00.914Z,98225.50
2022-08-05T21:41:35.499Z,98226.56
2022-08-05T21:44:08.931Z,98236.97
2022-08-05T21:46:44.156Z,98252.81
2022-08-05T21:49:48.690Z,98269.94
2022-08-05T21:52:26.796Z,98274.97
2022-08-05T21:55:06.812Z,98280.47
2022-08-05T21:57:42.668Z,98290.03
2022-08-05T22:00:16.650Z,98300.78
2022-08-05T22:02:49.702Z,98308.44
2022-08-05T22:05:27.329Z,98307.66
2022-08-05T22:08:02.605Z,98307.78
2022-08-05T22:10:35.828Z,98307.72
2022-08-05T22:14:19.777Z,98306.78
2022-08-05T22:16:20.490Z,98298.81
2022-08-05T22:18:58.750Z,98293.72
2022-08-05T22:21:32.132Z,98293.59
2022-08-05T22:24:40.820Z,98302.31
2022-08-05T22:28:10.225Z,98305.97
2022-08-05T22:30:38.332Z,98306.59
2022-08-05T22:33:57.255Z,98332.56
2022-08-05T22:36:24.086Z,98336.25
2022-08-05T22:38:57.807Z,98347.50
2022-08-05T22:42:09.460Z,98340.59
2022-08-05T22:44:37.441Z,98344.44
2022-08-05T22:47:11.808Z,98354.78
2022-08-05T22:50:19.664Z,98365.25
2022-08-05T22:52:40.022Z,98369.69
2022-08-05T22:55:18.258Z,98374.81
2022-08-05T22:57:55.278Z,98384.38
2022-08-05T23:00:28.404Z,98382.69
2022-08-05T23:03:04.586Z,98374.28
2022-08-05T23:05:37.867Z,98379.41
2022-08-05T23:08:13.127Z,98381.16
2022-08-05T23:10:50.857Z,98383.66
2022-08-05T23:13:27.685Z,98398.22
2022-08-05T23:16:02.956Z,98393.88
2022-08-05T23:18:35.117Z,98393.81
2022-08-05T23:21:11.627Z,98394.91
2022-08-05T23:23:49.585Z,98396.75
2022-08-05T23:26:25.359Z,98396.88
2022-08-05T23:29:02.049Z,98393.63
2022-08-05T23:31:37.627Z,98386.69
2022-08-05T23:34:10.706Z,98383.22
2022-08-05T23:36:44.576Z,98390.16
2022-08-05T23:39:32.257Z,98407.47
2022-08-05T23:42:28.999Z,98412.50
2022-08-05T23:45:04.557Z,98420.66
2022-08-05T23:47:48.437Z,98428.31
2022-08-05T23:50:26.488Z,98424.03
2022-08-05T23:52:59.697Z,98430.50
2022-08-05T23:55:34.067Z,98429.25
2022-08-05T23:58:07.139Z,98424.88
